createdAt,value
2018-07-17T00:00:04.824Z,15.40
2018-07-17T00:02:34.280Z,15.40
2018-07-17T00:05:02.894Z,15.30
2018-07-17T00:07:31.496Z,15.30
2018-07-17T00:10:00.738Z,15.20
2018-07-17T00:12:30.715Z,15.20
2018-07-17T00:15:00.745Z,15.20
2018-07-17T00:17:30.644Z,15.20
2018-07-17T00:20:00.089Z,15.20
2018-07-17T00:22:29.121Z,15.20
2018-07-17T00:24:58.148Z,15.20
2018-07-17T00:27:26.715Z,15.20
2018-07-17T00:29:55.245Z,15.20
2018-07-17T00:34:52.256Z,15.10
2018-07-17T00:37:20.788Z,15.10
2018-07-17T00:39:49.377Z,15.10
2018-07-17T00:44:46.296Z,15.00
2018-07-17T00:47:14.848Z,15.00
2018-07-17T00:49:43.425Z,15.00
2018-07-17T00:52:12.045Z,14.90
2018-07-17T00:54:40.630Z,14.90
2018-07-17T00:57:09.235Z,14.90
2018-07-17T00:59:37.777Z,14.90
2018-07-17T01:02:11.848Z,14.90
2018-07-17T01:04:45.816Z,14.90
2018-07-17T01:07:19.858Z,14.90
2018-07-17T01:09:53.756Z,14.90
2018-07-17T01:12:21.581Z,14.90
2018-07-17T01:14:54.675Z,14.80
2018-07-17T01:17:23.751Z,14.80
2018-07-17T01:19:52.260Z,14.80
2018-07-17T01:22:20.826Z,14.80
2018-07-17T01:24:49.386Z,14.70
2018-07-17T01:32:14.552Z,14.80
2018-07-17T01:34:43.107Z,14.70
2018-07-17T01:37:11.725Z,14.70
2018-07-17T01:39:40.268Z,14.70
2018-07-17T01:42:08.821Z,14.70
2018-07-17T01:44:37.449Z,14.70
2018-07-17T01:47:06.052Z,14.70
2018-07-17T01:49:34.592Z,14.70
2018-07-17T01:52:03.192Z,14.70
2018-07-17T01:54:31.763Z,14.70
2018-07-17T02:01:58.160Z,14.60
2018-07-17T02:04:26.729Z,14.60
2018-07-17T02:06:55.242Z,14.60
2018-07-17T02:09:23.765Z,14.60
2018-07-17T02:11:52.357Z,14.50
2018-07-17T02:16:49.363Z,14.50
2018-07-17T02:19:17.946Z,14.50
2018-07-17T02:21:46.531Z,14.50
2018-07-17T02:24:15.115Z,14.50
2018-07-17T02:26:43.699Z,14.50
2018-07-17T02:29:12.207Z,14.50
2018-07-17T02:31:40.739Z,14.50
2018-07-17T02:34:09.317Z,14.50
2018-07-17T02:36:37.893Z,14.40
2018-07-17T02:39:07.540Z,14.40
2018-07-17T02:41:36.112Z,14.40
2018-07-17T02:44:04.691Z,14.30
2018-07-17T02:46:33.287Z,14.40
2018-07-17T02:49:01.824Z,14.30
2018-07-17T02:53:59.444Z,14.30
2018-07-17T02:56:29.120Z,14.30
2018-07-17T02:58:58.139Z,14.30
2018-07-17T03:01:26.710Z,14.20
2018-07-17T03:03:55.330Z,14.30
2018-07-17T03:06:23.897Z,14.20
2018-07-17T03:08:52.485Z,14.30
2018-07-17T03:11:21.062Z,14.20
2018-07-17T03:13:49.663Z,14.20
2018-07-17T03:16:18.275Z,14.20
2018-07-17T03:18:46.804Z,14.20
2018-07-17T03:21:15.380Z,14.20
2018-07-17T03:23:43.960Z,14.20
2018-07-17T03:26:12.516Z,14.10
2018-07-17T03:31:09.416Z,14.20
2018-07-17T03:33:37.979Z,14.20
2018-07-17T03:36:06.573Z,14.20
2018-07-17T03:38:35.135Z,14.20
2018-07-17T03:41:03.752Z,14.20
2018-07-17T03:43:32.346Z,14.20
2018-07-17T03:46:00.930Z,14.20
2018-07-17T03:48:30.612Z,14.20
2018-07-17T03:51:00.566Z,14.30
2018-07-17T03:53:29.188Z,14.20
2018-07-17T03:58:26.866Z,14.30
2018-07-17T04:03:23.760Z,14.30
2018-07-17T04:05:52.502Z,14.40
2018-07-17T04:08:21.096Z,14.40
2018-07-17T04:10:49.723Z,14.40
2018-07-17T04:13:18.390Z,14.50
2018-07-17T04:15:46.937Z,14.50
2018-07-17T04:20:43.865Z,14.70
2018-07-17T04:23:12.405Z,14.80
2018-07-17T04:25:41.016Z,14.90
2018-07-17T04:28:09.589Z,15.00
2018-07-17T04:30:38.191Z,15.10
2018-07-17T04:33:06.768Z,15.20
2018-07-17T04:35:35.355Z,15.30
2018-07-17T04:38:03.990Z,15.40
2018-07-17T04:43:00.900Z,15.60
2018-07-17T04:45:30.202Z,15.60
2018-07-17T04:47:59.220Z,15.80
2018-07-17T04:50:27.835Z,15.80
2018-07-17T04:52:56.515Z,15.80
2018-07-17T04:55:25.048Z,15.80
2018-07-17T04:57:53.676Z,15.90
2018-07-17T05:02:50.537Z,16.00
2018-07-17T05:05:19.159Z,16.00
2018-07-17T05:07:47.748Z,16.10
2018-07-17T05:10:16.297Z,16.10
2018-07-17T05:12:44.883Z,16.10
2018-07-17T05:17:41.729Z,16.30
2018-07-17T05:22:38.703Z,16.30
2018-07-17T05:25:07.395Z,16.40
2018-07-17T05:27:35.954Z,16.40
2018-07-17T05:35:01.744Z,16.60
2018-07-17T05:37:31.392Z,16.70
2018-07-17T05:40:01.335Z,16.70
2018-07-17T05:42:31.165Z,16.80
2018-07-17T05:45:00.947Z,16.90
2018-07-17T05:47:30.519Z,17.00
2018-07-17T05:50:00.239Z,17.00
2018-07-17T05:52:28.821Z,17.20
2018-07-17T05:54:57.389Z,17.30
2018-07-17T05:57:26.834Z,17.40
2018-07-17T06:02:23.713Z,17.60
2018-07-17T06:04:52.340Z,17.70
2018-07-17T06:07:20.915Z,17.80
2018-07-17T06:09:49.453Z,18.00
2018-07-17T06:19:42.860Z,18.60
2018-07-17T06:24:39.766Z,19.00
2018-07-17T06:27:08.506Z,19.10
2018-07-17T06:32:05.360Z,19.50
2018-07-17T06:34:33.967Z,19.70
2018-07-17T06:37:02.545Z,19.80
2018-07-17T06:39:31.173Z,19.90
2018-07-17T06:42:00.865Z,20.10
2018-07-17T06:44:30.346Z,20.20
2018-07-17T06:46:59.514Z,20.40
2018-07-17T06:49:29.331Z,20.70
2018-07-17T06:51:58.513Z,20.90
2018-07-17T06:54:27.088Z,21.10
2018-07-17T06:56:55.713Z,21.20
2018-07-17T06:59:24.284Z,21.20
2018-07-17T07:04:21.112Z,21.30
2018-07-17T07:06:49.641Z,21.40
2018-07-17T07:09:18.239Z,21.40
2018-07-17T07:11:46.806Z,21.30
2018-07-17T07:14:15.423Z,21.30
2018-07-17T07:16:43.972Z,21.30
2018-07-17T07:19:12.555Z,21.40
2018-07-17T07:24:09.381Z,21.40
2018-07-17T07:26:37.955Z,21.40
2018-07-17T07:29:07.170Z,21.50
2018-07-17T07:31:35.744Z,21.50
2018-07-17T07:34:04.516Z,21.60
2018-07-17T07:36:33.216Z,21.70
2018-07-17T07:39:01.750Z,21.80
2018-07-17T07:41:31.107Z,22.00
2018-07-17T07:44:00.742Z,22.20
2018-07-17T07:48:59.240Z,22.50
2018-07-17T07:51:28.288Z,22.60
2018-07-17T07:53:56.968Z,22.70
2018-07-17T07:56:28.220Z,22.90
2018-07-17T07:58:56.858Z,23.10
2018-07-17T08:01:25.466Z,23.20
2018-07-17T08:03:54.096Z,23.20
2018-07-17T08:06:23.676Z,23.40
2018-07-17T08:08:52.394Z,23.40
2018-07-17T08:13:49.464Z,23.70
2018-07-17T08:18:48.470Z,24.60
2018-07-17T08:21:17.097Z,25.10
2018-07-17T08:23:45.816Z,25.50
2018-07-17T08:26:14.527Z,25.80
2018-07-17T08:28:43.144Z,26.00
2018-07-17T08:31:11.774Z,26.20
2018-07-17T08:33:40.376Z,26.30
2018-07-17T08:38:38.042Z,26.50
2018-07-17T08:41:07.101Z,26.70
2018-07-17T08:43:35.881Z,26.80
2018-07-17T08:46:04.535Z,27.00
2018-07-17T08:48:35.243Z,27.20
2018-07-17T08:51:03.891Z,27.30
2018-07-17T08:53:32.656Z,27.20
2018-07-17T08:56:01.363Z,27.00
2018-07-17T08:58:30.717Z,26.80
2018-07-17T09:03:28.708Z,26.00
2018-07-17T09:05:57.441Z,26.00
2018-07-17T09:08:26.749Z,25.90
2018-07-17T09:10:55.500Z,25.80
2018-07-17T09:13:24.162Z,25.70
2018-07-17T09:18:21.103Z,25.50
2018-07-17T09:20:49.759Z,25.40
2018-07-17T09:23:18.359Z,25.40
2018-07-17T09:25:47.088Z,25.30
2018-07-17T09:30:49.485Z,25.50
2018-07-17T09:33:18.093Z,25.70
2018-07-17T09:35:46.710Z,25.80
2018-07-17T09:38:15.380Z,26.00
2018-07-17T09:40:44.057Z,26.10
2018-07-17T09:43:12.756Z,26.10
2018-07-17T09:45:41.437Z,26.20
2018-07-17T09:48:10.060Z,26.40
2018-07-17T09:50:38.672Z,26.40
2018-07-17T09:53:07.345Z,26.30
2018-07-17T09:55:36.003Z,26.40
2018-07-17T09:58:05.204Z,26.30
2018-07-17T10:03:04.187Z,26.50
2018-07-17T10:05:33.029Z,26.50
2018-07-17T10:08:01.682Z,26.50
2018-07-17T10:10:31.299Z,26.60
2018-07-17T10:13:00.417Z,26.70
2018-07-17T10:15:29.692Z,26.80
2018-07-17T10:17:58.401Z,26.80
2018-07-17T10:22:55.430Z,27.00
2018-07-17T10:25:24.135Z,27.10
2018-07-17T10:30:21.024Z,27.20
2018-07-17T10:32:49.639Z,27.20
2018-07-17T10:35:18.222Z,27.20
2018-07-17T10:37:46.868Z,27.00
2018-07-17T10:40:15.507Z,26.90
2018-07-17T10:42:44.107Z,26.80
2018-07-17T10:45:12.829Z,26.80
2018-07-17T10:47:41.554Z,26.80
2018-07-17T10:50:10.129Z,26.80
2018-07-17T10:55:07.290Z,26.80
2018-07-17T10:57:35.988Z,26.80
2018-07-17T11:00:04.643Z,26.80
2018-07-17T11:02:33.330Z,26.70
2018-07-17T11:05:01.995Z,26.70
2018-07-17T11:07:31.387Z,26.70
2018-07-17T11:12:29.266Z,26.70
2018-07-17T11:17:26.849Z,26.80
2018-07-17T11:19:55.476Z,26.80
2018-07-17T11:22:24.111Z,26.80
2018-07-17T11:27:21.044Z,26.80
2018-07-17T11:29:49.684Z,27.00
2018-07-17T11:32:18.342Z,27.10
2018-07-17T11:37:15.453Z,27.20
2018-07-17T11:39:44.144Z,27.20
2018-07-17T11:42:12.809Z,27.20
2018-07-17T11:44:41.532Z,27.20
2018-07-17T11:47:10.295Z,27.30
2018-07-17T11:49:39.041Z,27.30
2018-07-17T11:54:36.054Z,27.30
2018-07-17T11:57:05.108Z,27.40
2018-07-17T11:59:33.714Z,27.50
2018-07-17T12:02:02.482Z,27.50
2018-07-17T12:04:31.456Z,27.60
2018-07-17T12:11:58.707Z,27.70
2018-07-17T12:14:27.299Z,27.70
2018-07-17T12:16:55.989Z,27.70
2018-07-17T12:19:24.547Z,27.90
2018-07-17T12:21:53.242Z,27.80
2018-07-17T12:24:21.933Z,27.80
2018-07-17T12:26:50.575Z,27.80
2018-07-17T12:29:19.324Z,27.80
2018-07-17T12:31:47.988Z,27.90
2018-07-17T12:34:16.735Z,28.10
2018-07-17T12:36:45.306Z,28.20
2018-07-17T12:39:13.976Z,28.30
2018-07-17T12:44:10.965Z,28.40
2018-07-17T12:46:39.839Z,28.50
2018-07-17T12:51:36.885Z,28.70
2018-07-17T12:54:05.669Z,28.80
